Terminal Aerodrome Forecast
Issued by NWS Huntsville, AL

Home | Current Version | Previous Version | Text Only | Print | Product List | Glossary On
Versions: 1 2 3 4 5 6 7 8 9 10 11 12 13 14 15 16
000
FTUS44 KHUN 300535
TAFMSL
TAF
KMSL 300535Z 3006/3106 VRB02KT 2SM BR SCT080 SCT250
      TEMPO 3008/3012 4SM BR
     FM301200 VRB04KT P6SM SCT040 BKN120
     FM310000 VRB03KT P6SM BKN250=

USA.gov is the U.S. government's official web portal to all federal, state and local government web resources and services.